sensor_id;sensor_type;location;lat;lon;timestamp;pressure;altitude;pressure_sealevel;temperature;humidity
61014;BME280;46899;47.542;19.082;2023-02-03T00:01:05;101050.53;;;1.35;100.00
61014;BME280;46899;47.542;19.082;2023-02-03T00:04:08;101059.16;;;1.41;100.00
61014;BME280;46899;47.542;19.082;2023-02-03T00:07:10;101070.22;;;1.36;100.00
61014;BME280;46899;47.542;19.082;2023-02-03T00:10:14;101080.47;;;1.39;100.00
61014;BME280;46899;47.542;19.082;2023-02-03T00:13:16;101084.78;;;1.41;100.00
61014;BME280;46899;47.542;19.082;2023-02-03T00:16:19;101089.97;;;1.44;100.00
61014;BME280;46899;47.542;19.082;2023-02-03T00:19:22;101086.53;;;1.43;100.00
61014;BME280;46899;47.542;19.082;2023-02-03T00:22:24;101093.28;;;1.38;100.00
61014;BME280;46899;47.542;19.082;2023-02-03T00:25:27;101094.97;;;1.37;100.00
61014;BME280;46899;47.542;19.082;2023-02-03T00:28:29;101094.09;;;1.35;100.00
61014;BME280;46899;47.542;19.082;2023-02-03T00:31:32;101105.13;;;1.28;100.00
61014;BME280;46899;47.542;19.082;2023-02-03T00:34:35;101096.50;;;1.25;100.00
61014;BME280;46899;47.542;19.082;2023-02-03T00:37:38;101098.19;;;1.23;100.00
61014;BME280;46899;47.542;19.082;2023-02-03T00:40:41;101099.91;;;1.24;100.00
61014;BME280;46899;47.542;19.082;2023-02-03T00:43:43;101107.59;;;1.22;100.00
61014;BME280;46899;47.542;19.082;2023-02-03T00:46:46;101108.34;;;1.15;100.00
61014;BME280;46899;47.542;19.082;2023-02-03T00:49:48;101114.28;;;1.14;100.00
61014;BME280;46899;47.542;19.082;2023-02-03T00:52:51;101112.53;;;1.10;100.00
61014;BME280;46899;47.542;19.082;2023-02-03T00:55:54;101106.69;;;1.19;100.00
61014;BME280;46899;47.542;19.082;2023-02-03T00:58:57;101126.38;;;1.23;100.00
61014;BME280;46899;47.542;19.082;2023-02-03T01:01:59;101132.19;;;1.11;100.00
61014;BME280;46899;47.542;19.082;2023-02-03T01:05:02;101139.91;;;1.13;100.00
61014;BME280;46899;47.542;19.082;2023-02-03T01:08:04;101147.47;;;1.05;100.00
61014;BME280;46899;47.542;19.082;2023-02-03T01:11:08;101145.78;;;1.06;100.00
61014;BME280;46899;47.542;19.082;2023-02-03T01:14:11;101150.84;;;1.04;100.00
61014;BME280;46899;47.542;19.082;2023-02-03T01:17:13;101155.84;;;0.95;100.00
61014;BME280;46899;47.542;19.082;2023-02-03T01:20:16;101154.16;;;0.97;100.00
61014;BME280;46899;47.542;19.082;2023-02-03T01:23:18;101153.13;;;0.86;100.00
61014;BME280;46899;47.542;19.082;2023-02-03T01:26:21;101164.19;;;0.85;100.00
61014;BME280;46899;47.542;19.082;2023-02-03T01:29:24;101165.03;;;0.84;100.00
61014;BME280;46899;47.542;19.082;2023-02-03T01:32:27;101164.16;;;0.82;100.00
61014;BME280;46899;47.542;19.082;2023-02-03T01:35:32;101165.03;;;0.84;100.00
61014;BME280;46899;47.542;19.082;2023-02-03T01:38:35;101170.09;;;0.81;100.00
61014;BME280;46899;47.542;19.082;2023-02-03T01:41:39;101172.50;;;0.72;100.00
61014;BME280;46899;47.542;19.082;2023-02-03T01:44:46;101181.12;;;0.77;99.26
61014;BME280;46899;47.542;19.082;2023-02-03T01:47:50;101177.72;;;0.78;98.92
61014;BME280;46899;47.542;19.082;2023-02-03T01:50:54;101182.13;;;0.85;97.45
61014;BME280;46899;47.542;19.082;2023-02-03T01:53:57;101184.66;;;0.82;97.50
61014;BME280;46899;47.542;19.082;2023-02-03T01:57:00;101188.81;;;0.77;98.21
61014;BME280;46899;47.542;19.082;2023-02-03T02:00:05;101194.69;;;0.73;98.10
61014;BME280;46899;47.542;19.082;2023-02-03T02:03:14;101197.00;;;0.59;98.95
61014;BME280;46899;47.542;19.082;2023-02-03T02:06:17;101195.22;;;0.54;99.43
61014;BME280;46899;47.542;19.082;2023-02-03T02:09:19;101196.84;;;0.52;98.16
61014;BME280;46899;47.542;19.082;2023-02-03T02:12:22;101201.97;;;0.52;97.16
61014;BME280;46899;47.542;19.082;2023-02-03T02:15:31;101196.16;;;0.59;95.38
61014;BME280;46899;47.542;19.082;2023-02-03T02:46:56;101200.19;;;0.05;97.99
61014;BME280;46899;47.542;19.082;2023-02-03T02:50:05;101210.09;;;-0.11;98.88
61014;BME280;46899;47.542;19.082;2023-02-03T02:53:10;101208.31;;;-0.15;100.00
61014;BME280;46899;47.542;19.082;2023-02-03T02:56:16;101213.72;;;0.00;100.00
61014;BME280;46899;47.542;19.082;2023-02-03T02:59:20;101210.00;;;-0.15;100.00
61014;BME280;46899;47.542;19.082;2023-02-03T03:02:30;101216.69;;;-0.20;100.00
61014;BME280;46899;47.542;19.082;2023-02-03T03:05:32;101225.34;;;-0.14;100.00
61014;BME280;46899;47.542;19.082;2023-02-03T03:08:43;101227.03;;;-0.16;100.00
61014;BME280;46899;47.542;19.082;2023-02-03T03:11:49;101222.56;;;-0.24;100.00
61014;BME280;46899;47.542;19.082;2023-02-03T03:14:55;101224.34;;;-0.22;100.00
61014;BME280;46899;47.542;19.082;2023-02-03T03:21:44;101229.28;;;-0.28;100.00
61014;BME280;46899;47.542;19.082;2023-02-03T03:24:49;101220.81;;;-0.27;100.00
61014;BME280;46899;47.542;19.082;2023-02-03T03:27:55;101211.31;;;-0.32;100.00
61014;BME280;46899;47.542;19.082;2023-02-03T03:31:00;101219.16;;;-0.25;100.00
61014;BME280;46899;47.542;19.082;2023-02-03T03:34:03;101218.94;;;-0.34;100.00
61014;BME280;46899;47.542;19.082;2023-02-03T03:43:14;101225.50;;;-0.08;97.63
61014;BME280;46899;47.542;19.082;2023-02-03T03:46:19;101220.41;;;-0.08;97.31
61014;BME280;46899;47.542;19.082;2023-02-03T03:49:23;101218.09;;;0.05;95.26
61014;BME280;46899;47.542;19.082;2023-02-03T03:52:27;101217.44;;;0.15;94.27
61014;BME280;46899;47.542;19.082;2023-02-03T03:55:32;101215.53;;;0.05;94.76
61014;BME280;46899;47.542;19.082;2023-02-03T03:58:36;101217.22;;;0.04;93.77
61014;BME280;46899;47.542;19.082;2023-02-03T04:01:40;101219.81;;;0.06;93.92
61014;BME280;46899;47.542;19.082;2023-02-03T04:04:43;101204.44;;;0.04;93.62
61014;BME280;46899;47.542;19.082;2023-02-03T04:07:47;101216.37;;;0.04;94.55
61014;BME280;46899;47.542;19.082;2023-02-03T04:10:50;101213.78;;;0.02;95.96
61014;BME280;46899;47.542;19.082;2023-02-03T04:13:52;101203.59;;;0.05;96.83
61014;BME280;46899;47.542;19.082;2023-02-03T04:16:55;101208.88;;;0.13;97.93
61014;BME280;46899;47.542;19.082;2023-02-03T04:19:58;101214.84;;;0.12;98.84
61014;BME280;46899;47.542;19.082;2023-02-03T04:23:00;101207.13;;;0.10;99.78
61014;BME280;46899;47.542;19.082;2023-02-03T04:26:03;101199.16;;;-0.04;100.00
61014;BME280;46899;47.542;19.082;2023-02-03T04:29:05;101192.22;;;-0.09;100.00
61014;BME280;46899;47.542;19.082;2023-02-03T04:32:08;101199.84;;;-0.11;100.00
61014;BME280;46899;47.542;19.082;2023-02-03T04:35:11;101197.66;;;0.06;100.00
61014;BME280;46899;47.542;19.082;2023-02-03T04:38:14;101197.88;;;0.17;98.53
61014;BME280;46899;47.542;19.082;2023-02-03T04:41:17;101197.03;;;0.16;95.59
61014;BME280;46899;47.542;19.082;2023-02-03T04:44:19;101193.78;;;0.25;92.42
61014;BME280;46899;47.542;19.082;2023-02-03T04:47:22;101197.38;;;0.34;88.16
61014;BME280;46899;47.542;19.082;2023-02-03T04:50:24;101184.84;;;0.48;84.67
61014;BME280;46899;47.542;19.082;2023-02-03T04:53:28;101180.69;;;0.54;82.47
61014;BME280;46899;47.542;19.082;2023-02-03T04:56:30;101173.94;;;0.58;81.44
61014;BME280;46899;47.542;19.082;2023-02-03T04:59:33;101171.56;;;0.67;80.94
61014;BME280;46899;47.542;19.082;2023-02-03T05:02:35;101179.25;;;0.67;79.96
61014;BME280;46899;47.542;19.082;2023-02-03T05:05:38;101180.13;;;0.69;80.39
61014;BME280;46899;47.542;19.082;2023-02-03T05:08:40;101175.13;;;0.75;79.27
61014;BME280;46899;47.542;19.082;2023-02-03T05:11:43;101185.47;;;0.83;78.16
61014;BME280;46899;47.542;19.082;2023-02-03T05:14:45;101175.44;;;0.93;77.44
61014;BME280;46899;47.542;19.082;2023-02-03T05:17:50;101170.31;;;0.95;77.61
61014;BME280;46899;47.542;19.082;2023-02-03T05:20:52;101174.62;;;0.94;76.45
61014;BME280;46899;47.542;19.082;2023-02-03T05:23:55;101177.19;;;0.96;76.55
61014;BME280;46899;47.542;19.082;2023-02-03T05:26:58;101175.44;;;0.93;76.18
61014;BME280;46899;47.542;19.082;2023-02-03T05:30:00;101184.97;;;1.02;75.64
61014;BME280;46899;47.542;19.082;2023-02-03T05:33:03;101182.31;;;0.94;76.39
61014;BME280;46899;47.542;19.082;2023-02-03T05:36:05;101183.19;;;0.96;76.77
61014;BME280;46899;47.542;19.082;2023-02-03T05:39:08;101181.31;;;0.88;77.21
61014;BME280;46899;47.542;19.082;2023-02-03T05:42:10;101189.00;;;0.88;77.17
61014;BME280;46899;47.542;19.082;2023-02-03T05:45:13;101193.44;;;0.96;77.27
61014;BME280;46899;47.542;19.082;2023-02-03T05:48:16;101194.03;;;0.83;79.25
61014;BME280;46899;47.542;19.082;2023-02-03T05:51:18;101204.34;;;0.86;78.28
61014;BME280;46899;47.542;19.082;2023-02-03T05:54:21;101203.56;;;0.90;77.28
61014;BME280;46899;47.542;19.082;2023-02-03T05:57:23;101202.16;;;1.07;76.67
61014;BME280;46899;47.542;19.082;2023-02-03T06:00:26;101203.78;;;1.04;77.16
61014;BME280;46899;47.542;19.082;2023-02-03T06:03:29;101207.06;;;0.95;77.93
61014;BME280;46899;47.542;19.082;2023-02-03T06:06:32;101206.25;;;0.96;79.31
61014;BME280;46899;47.542;19.082;2023-02-03T06:09:35;101193.66;;;1.08;79.45
61014;BME280;46899;47.542;19.082;2023-02-03T06:12:37;101187.59;;;1.06;80.09
61014;BME280;46899;47.542;19.082;2023-02-03T06:15:40;101193.53;;;1.02;81.25
61014;BME280;46899;47.542;19.082;2023-02-03T06:18:43;101183.25;;;1.01;81.23
61014;BME280;46899;47.542;19.082;2023-02-03T06:21:46;101191.91;;;1.06;82.45
61014;BME280;46899;47.542;19.082;2023-02-03T06:24:49;101192.72;;;1.06;82.17
61014;BME280;46899;47.542;19.082;2023-02-03T06:27:51;101202.97;;;1.06;82.66
61014;BME280;46899;47.542;19.082;2023-02-03T06:30:54;101202.06;;;1.03;83.24
61014;BME280;46899;47.542;19.082;2023-02-03T06:33:57;101214.97;;;1.07;83.91
61014;BME280;46899;47.542;19.082;2023-02-03T06:37:00;101203.03;;;1.09;83.77
61014;BME280;46899;47.542;19.082;2023-02-03T06:40:03;101200.59;;;1.17;82.80
61014;BME280;46899;47.542;19.082;2023-02-03T06:43:09;101198.06;;;1.18;82.10
61014;BME280;46899;47.542;19.082;2023-02-03T06:46:12;101208.19;;;1.11;81.86
61014;BME280;46899;47.542;19.082;2023-02-03T06:49:15;101203.25;;;1.21;81.25
61014;BME280;46899;47.542;19.082;2023-02-03T06:52:18;101204.06;;;1.20;80.25
61014;BME280;46899;47.542;19.082;2023-02-03T06:55:21;101209.25;;;1.22;78.35
61014;BME280;46899;47.542;19.082;2023-02-03T06:58:23;101205.00;;;1.25;78.70
61014;BME280;46899;47.542;19.082;2023-02-03T07:01:26;101211.06;;;1.29;78.52
61014;BME280;46899;47.542;19.082;2023-02-03T07:04:29;101211.12;;;1.33;79.16
61014;BME280;46899;47.542;19.082;2023-02-03T07:07:31;101204.38;;;1.38;77.19
61014;BME280;46899;47.542;19.082;2023-02-03T07:10:35;101207.03;;;1.45;75.91
61014;BME280;46899;47.542;19.082;2023-02-03T07:13:37;101205.41;;;1.51;74.90
61014;BME280;46899;47.542;19.082;2023-02-03T07:16:40;101204.66;;;1.55;73.65
61014;BME280;46899;47.542;19.082;2023-02-03T07:19:42;101196.22;;;1.62;72.78
61014;BME280;46899;47.542;19.082;2023-02-03T07:22:51;101206.53;;;1.68;73.35
61014;BME280;46899;47.542;19.082;2023-02-03T07:25:53;101203.22;;;1.74;72.70
61014;BME280;46899;47.542;19.082;2023-02-03T07:29:00;101201.59;;;1.82;72.81
61014;BME280;46899;47.542;19.082;2023-02-03T07:32:03;101212.84;;;1.90;71.35
61014;BME280;46899;47.542;19.082;2023-02-03T07:35:06;101206.78;;;1.85;69.42
61014;BME280;46899;47.542;19.082;2023-02-03T07:38:09;101206.03;;;1.92;70.22
61014;BME280;46899;47.542;19.082;2023-02-03T07:41:13;101215.47;;;1.93;71.37
61014;BME280;46899;47.542;19.082;2023-02-03T07:44:19;101216.34;;;1.98;70.58
61014;BME280;46899;47.542;19.082;2023-02-03T07:47:21;101218.03;;;1.93;67.74
61014;BME280;46899;47.542;19.082;2023-02-03T07:50:24;101222.34;;;1.97;69.17
61014;BME280;46899;47.542;19.082;2023-02-03T07:53:27;101220.06;;;2.18;67.64
61014;BME280;46899;47.542;19.082;2023-02-03T07:56:29;101223.50;;;2.20;67.29
61014;BME280;46899;47.542;19.082;2023-02-03T07:59:34;101220.88;;;2.16;67.88
61014;BME280;46899;47.542;19.082;2023-02-03T08:02:37;101216.53;;;2.10;69.96
61014;BME280;46899;47.542;19.082;2023-02-03T08:05:39;101223.41;;;2.13;68.83
61014;BME280;46899;47.542;19.082;2023-02-03T08:08:42;101226.78;;;2.07;68.79
61014;BME280;46899;47.542;19.082;2023-02-03T08:11:45;101233.66;;;2.11;68.64
61014;BME280;46899;47.542;19.082;2023-02-03T08:14:47;101226.78;;;2.08;68.55
61014;BME280;46899;47.542;19.082;2023-02-03T08:17:50;101228.47;;;2.08;68.45
61014;BME280;46899;47.542;19.082;2023-02-03T08:20:52;101225.97;;;2.13;68.06
61014;BME280;46899;47.542;19.082;2023-02-03T08:23:55;101232.78;;;2.09;68.39
61014;BME280;46899;47.542;19.082;2023-02-03T08:26:57;101220.88;;;2.14;68.49
61014;BME280;46899;47.542;19.082;2023-02-03T08:30:01;101221.72;;;2.13;69.75
61014;BME280;46899;47.542;19.082;2023-02-03T08:33:03;101226.87;;;2.16;69.20
61014;BME280;46899;47.542;19.082;2023-02-03T08:36:06;101228.69;;;2.23;68.65
61014;BME280;46899;47.542;19.082;2023-02-03T08:39:09;101234.75;;;2.28;69.42
61014;BME280;46899;47.542;19.082;2023-02-03T08:42:12;101239.78;;;2.22;70.09
61014;BME280;46899;47.542;19.082;2023-02-03T08:45:14;101232.03;;;2.19;70.68
61014;BME280;46899;47.542;19.082;2023-02-03T08:48:17;101231.22;;;2.22;71.19
61014;BME280;46899;47.542;19.082;2023-02-03T08:51:19;101235.75;;;2.39;68.92
61014;BME280;46899;47.542;19.082;2023-02-03T08:54:22;101236.59;;;2.40;70.31
61014;BME280;46899;47.542;19.082;2023-02-03T08:57:25;101240.09;;;2.46;69.94
61014;BME280;46899;47.542;19.082;2023-02-03T09:00:28;101236.87;;;2.62;68.04
61014;BME280;46899;47.542;19.082;2023-02-03T09:03:31;101236.94;;;2.68;68.15
61014;BME280;46899;47.542;19.082;2023-02-03T09:06:34;101247.28;;;2.74;69.17
61014;BME280;46899;47.542;19.082;2023-02-03T09:09:37;101245.62;;;2.81;69.49
61014;BME280;46899;47.542;19.082;2023-02-03T09:12:39;101234.53;;;2.84;71.63
61014;BME280;46899;47.542;19.082;2023-02-03T09:15:42;101232.81;;;2.83;72.24
61014;BME280;46899;47.542;19.082;2023-02-03T09:18:45;101226.94;;;2.94;75.65
61014;BME280;46899;47.542;19.082;2023-02-03T09:21:47;101229.56;;;3.02;76.50
61014;BME280;46899;47.542;19.082;2023-02-03T09:24:53;101233.69;;;2.88;82.14
61014;BME280;46899;47.542;19.082;2023-02-03T09:27:56;101228.09;;;2.45;92.49
61014;BME280;46899;47.542;19.082;2023-02-03T09:31:02;101232.09;;;2.22;98.32
61014;BME280;46899;47.542;19.082;2023-02-03T09:34:05;101225.56;;;1.84;100.00
61014;BME280;46899;47.542;19.082;2023-02-03T09:37:08;101222.97;;;1.81;100.00
61014;BME280;46899;47.542;19.082;2023-02-03T09:40:33;101223.63;;;1.68;100.00
61014;BME280;46899;47.542;19.082;2023-02-03T09:43:34;101206.41;;;1.59;100.00
61014;BME280;46899;47.542;19.082;2023-02-03T09:46:43;101201.28;;;1.58;100.00
61014;BME280;46899;47.542;19.082;2023-02-03T09:49:50;101188.06;;;1.33;100.00
61014;BME280;46899;47.542;19.082;2023-02-03T09:52:53;101187.28;;;1.39;100.00
61014;BME280;46899;47.542;19.082;2023-02-03T09:55:57;101179.63;;;1.41;100.00
61014;BME280;46899;47.542;19.082;2023-02-03T09:59:00;101174.88;;;1.65;100.00
61014;BME280;46899;47.542;19.082;2023-02-03T10:02:12;101171.56;;;1.75;100.00
61014;BME280;46899;47.542;19.082;2023-02-03T10:05:35;101163.22;;;1.88;100.00
61014;BME280;46899;47.542;19.082;2023-02-03T10:18:23;101126.69;;;2.08;100.00
61014;BME280;46899;47.542;19.082;2023-02-03T10:24:42;101109.69;;;2.20;100.00
61014;BME280;46899;47.542;19.082;2023-02-03T10:27:47;101098.69;;;2.31;100.00
61014;BME280;46899;47.542;19.082;2023-02-03T10:31:00;101084.94;;;2.26;100.00
61014;BME280;46899;47.542;19.082;2023-02-03T10:34:09;101078.19;;;2.33;100.00
61014;BME280;46899;47.542;19.082;2023-02-03T10:40:15;101071.34;;;2.35;100.00
61014;BME280;46899;47.542;19.082;2023-02-03T10:43:18;101067.28;;;2.56;100.00
61014;BME280;46899;47.542;19.082;2023-02-03T10:46:40;101050.16;;;2.55;100.00
61014;BME280;46899;47.542;19.082;2023-02-03T10:49:45;101045.91;;;2.60;100.00
61014;BME280;46899;47.542;19.082;2023-02-03T10:52:48;101040.59;;;2.39;100.00
61014;BME280;46899;47.542;19.082;2023-02-03T10:55:58;101042.31;;;2.43;100.00
61014;BME280;46899;47.542;19.082;2023-02-03T10:59:02;101025.28;;;2.51;100.00
61014;BME280;46899;47.542;19.082;2023-02-03T11:02:07;101023.53;;;2.44;100.00
61014;BME280;46899;47.542;19.082;2023-02-03T11:08:18;101003.50;;;2.08;100.00
61014;BME280;46899;47.542;19.082;2023-02-03T11:11:30;101001.03;;;2.16;100.00
61014;BME280;46899;47.542;19.082;2023-02-03T11:14:35;100995.03;;;2.17;100.00
61014;BME280;46899;47.542;19.082;2023-02-03T11:17:38;100981.31;;;2.14;100.00
61014;BME280;46899;47.542;19.082;2023-02-03T11:20:45;100979.66;;;2.20;100.00
61014;BME280;46899;47.542;19.082;2023-02-03T11:30:14;100967.38;;;1.87;100.00
61014;BME280;46899;47.542;19.082;2023-02-03T11:33:18;100947.62;;;1.79;100.00
61014;BME280;46899;47.542;19.082;2023-02-03T11:36:27;100934.81;;;1.80;100.00
61014;BME280;46899;47.542;19.082;2023-02-03T11:39:31;100923.59;;;1.72;100.00
61014;BME280;46899;47.542;19.082;2023-02-03T11:42:37;100929.59;;;1.71;100.00
61014;BME280;46899;47.542;19.082;2023-02-03T11:45:42;100922.81;;;1.76;100.00
61014;BME280;46899;47.542;19.082;2023-02-03T11:48:50;100909.81;;;1.60;100.00
61014;BME280;46899;47.542;19.082;2023-02-03T11:52:22;100902.97;;;1.59;100.00
61014;BME280;46899;47.542;19.082;2023-02-03T12:11:21;100860.47;;;1.01;100.00
61014;BME280;46899;47.542;19.082;2023-02-03T12:17:35;100828.03;;;1.03;100.00
61014;BME280;46899;47.542;19.082;2023-02-03T12:33:49;100787.19;;;1.15;100.00
61014;BME280;46899;47.542;19.082;2023-02-03T12:37:39;100770.03;;;1.11;100.00
61014;BME280;46899;47.542;19.082;2023-02-03T12:43:38;100747.88;;;1.13;100.00
61014;BME280;46899;47.542;19.082;2023-02-03T12:46:44;100738.47;;;1.13;100.00
61014;BME280;46899;47.542;19.082;2023-02-03T12:52:59;100717.22;;;1.22;100.00
61014;BME280;46899;47.542;19.082;2023-02-03T12:56:06;100716.22;;;1.11;100.00
61014;BME280;46899;47.542;19.082;2023-02-03T12:59:23;100701.75;;;1.16;100.00
61014;BME280;46899;47.542;19.082;2023-02-03T13:02:28;100693.09;;;0.99;100.00
61014;BME280;46899;47.542;19.082;2023-02-03T13:08:59;100670.13;;;1.09;100.00
61014;BME280;46899;47.542;19.082;2023-02-03T13:12:08;100671.84;;;1.12;100.00
61014;BME280;46899;47.542;19.082;2023-02-03T13:18:35;100645.50;;;1.26;100.00
61014;BME280;46899;47.542;19.082;2023-02-03T13:21:38;100651.47;;;1.30;100.00
61014;BME280;46899;47.542;19.082;2023-02-03T13:24:54;100639.56;;;1.33;100.00
61014;BME280;46899;47.542;19.082;2023-02-03T13:41:06;100602.06;;;1.51;100.00
61014;BME280;46899;47.542;19.082;2023-02-03T13:44:11;100599.50;;;1.54;100.00
61014;BME280;46899;47.542;19.082;2023-02-03T13:47:17;100583.31;;;1.59;100.00
61014;BME280;46899;47.542;19.082;2023-02-03T13:50:25;100586.75;;;1.66;100.00
61014;BME280;46899;47.542;19.082;2023-02-03T13:53:30;100574.78;;;1.68;100.00
61014;BME280;46899;47.542;19.082;2023-02-03T13:56:35;100572.22;;;1.68;100.00
61014;BME280;46899;47.542;19.082;2023-02-03T13:59:40;100566.25;;;1.66;100.00
61014;BME280;46899;47.542;19.082;2023-02-03T14:02:44;100572.28;;;1.74;100.00
61014;BME280;46899;47.542;19.082;2023-02-03T14:05:54;100556.03;;;1.73;100.00
61014;BME280;46899;47.542;19.082;2023-02-03T14:08:57;100557.75;;;1.79;100.00
61014;BME280;46899;47.542;19.082;2023-02-03T14:18:33;100546.66;;;1.83;100.00
61014;BME280;46899;47.542;19.082;2023-02-03T14:24:53;100537.28;;;1.92;100.00
61014;BME280;46899;47.542;19.082;2023-02-03T14:28:17;100536.41;;;1.93;100.00
61014;BME280;46899;47.542;19.082;2023-02-03T14:31:24;100533.84;;;1.98;100.00
61014;BME280;46899;47.542;19.082;2023-02-03T14:34:34;100523.59;;;2.01;100.00
61014;BME280;46899;47.542;19.082;2023-02-03T14:37:38;100521.91;;;2.07;100.00
61014;BME280;46899;47.542;19.082;2023-02-03T14:41:01;100513.34;;;2.10;100.00
61014;BME280;46899;47.542;19.082;2023-02-03T14:50:38;100499.69;;;2.29;100.00
61014;BME280;46899;47.542;19.082;2023-02-03T14:53:49;100491.13;;;2.33;100.00
61014;BME280;46899;47.542;19.082;2023-02-03T15:03:26;100485.16;;;2.43;100.00
61014;BME280;46899;47.542;19.082;2023-02-03T15:06:39;100478.28;;;2.45;100.00
61014;BME280;46899;47.542;19.082;2023-02-03T15:09:46;100473.16;;;2.45;100.00
61014;BME280;46899;47.542;19.082;2023-02-03T15:12:53;100459.50;;;2.45;100.00
61014;BME280;46899;47.542;19.082;2023-02-03T15:15:57;100458.63;;;2.52;100.00
61014;BME280;46899;47.542;19.082;2023-02-03T15:19:01;100438.94;;;2.49;100.00
61014;BME280;46899;47.542;19.082;2023-02-03T15:22:44;100433.81;;;2.46;100.00
61014;BME280;46899;47.542;19.082;2023-02-03T15:25:39;100437.22;;;2.53;100.00
61014;BME280;46899;47.542;19.082;2023-02-03T15:28:41;100433.78;;;2.58;100.00
61014;BME280;46899;47.542;19.082;2023-02-03T15:31:44;100426.09;;;2.58;100.00
61014;BME280;46899;47.542;19.082;2023-02-03T15:34:51;100427.78;;;2.59;100.00
61014;BME280;46899;47.542;19.082;2023-02-03T15:38:04;100420.06;;;2.59;100.00
61014;BME280;46899;47.542;19.082;2023-02-03T15:41:10;100419.22;;;2.60;100.00
61014;BME280;46899;47.542;19.082;2023-02-03T15:44:38;100416.66;;;2.65;100.00
61014;BME280;46899;47.542;19.082;2023-02-03T15:47:40;100410.66;;;2.63;100.00
61014;BME280;46899;47.542;19.082;2023-02-03T15:50:50;100411.50;;;2.69;100.00
61014;BME280;46899;47.542;19.082;2023-02-03T15:53:57;100399.53;;;2.70;100.00
61014;BME280;46899;47.542;19.082;2023-02-03T15:57:03;100395.28;;;2.58;100.00
61014;BME280;46899;47.542;19.082;2023-02-03T16:00:28;100394.41;;;2.62;100.00
61014;BME280;46899;47.542;19.082;2023-02-03T16:03:33;100386.69;;;2.64;100.00
61014;BME280;46899;47.542;19.082;2023-02-03T16:06:37;100393.53;;;2.62;100.00
61014;BME280;46899;47.542;19.082;2023-02-03T16:09:42;100389.31;;;2.52;100.00
61014;BME280;46899;47.542;19.082;2023-02-03T16:12:44;100389.31;;;2.44;100.00
61014;BME280;46899;47.542;19.082;2023-02-03T16:16:13;100388.44;;;2.44;100.00
61014;BME280;46899;47.542;19.082;2023-02-03T16:19:20;100381.59;;;2.41;100.00
61014;BME280;46899;47.542;19.082;2023-02-03T16:22:27;100373.03;;;2.33;100.00
61014;BME280;46899;47.542;19.082;2023-02-03T16:25:33;100366.22;;;2.26;100.00
61014;BME280;46899;47.542;19.082;2023-02-03T16:28:36;100350.00;;;2.21;100.00
61014;BME280;46899;47.542;19.082;2023-02-03T16:31:57;100351.72;;;2.16;100.00
61014;BME280;46899;47.542;19.082;2023-02-03T16:35:19;100344.84;;;2.07;100.00
61014;BME280;46899;47.542;19.082;2023-02-03T16:38:47;100321.78;;;2.01;100.00
61014;BME280;46899;47.542;19.082;2023-02-03T16:42:15;100325.22;;;2.02;100.00
61014;BME280;46899;47.542;19.082;2023-02-03T16:45:37;100326.91;;;2.03;100.00
61014;BME280;46899;47.542;19.082;2023-02-03T16:48:58;100311.50;;;2.03;100.00
61014;BME280;46899;47.542;19.082;2023-02-03T16:52:19;100291.84;;;2.00;100.00
61014;BME280;46899;47.542;19.082;2023-02-03T16:55:22;100286.69;;;2.05;100.00
61014;BME280;46899;47.542;19.082;2023-02-03T16:58:25;100285.03;;;2.02;100.00
61014;BME280;46899;47.542;19.082;2023-02-03T17:01:28;100268.75;;;2.03;100.00
61014;BME280;46899;47.542;19.082;2023-02-03T17:04:30;100268.75;;;2.08;100.00
61014;BME280;46899;47.542;19.082;2023-02-03T17:07:34;100250.78;;;2.11;100.00
61014;BME280;46899;47.542;19.082;2023-02-03T17:10:37;100240.50;;;2.16;100.00
61014;BME280;46899;47.542;19.082;2023-02-03T17:13:40;100228.50;;;2.21;100.00
61014;BME280;46899;47.542;19.082;2023-02-03T17:16:43;100233.63;;;2.28;100.00
61014;BME280;46899;47.542;19.082;2023-02-03T17:19:47;100227.56;;;2.41;100.00
61014;BME280;46899;47.542;19.082;2023-02-03T17:22:49;100218.97;;;2.48;100.00
61014;BME280;46899;47.542;19.082;2023-02-03T17:25:55;100211.22;;;2.60;100.00
61014;BME280;46899;47.542;19.082;2023-02-03T17:28:58;100199.16;;;2.71;100.00
61014;BME280;46899;47.542;19.082;2023-02-03T17:32:04;100195.72;;;2.80;100.00
61014;BME280;46899;47.542;19.082;2023-02-03T17:35:07;100190.50;;;2.89;100.00
61014;BME280;46899;47.542;19.082;2023-02-03T17:38:11;100181.03;;;2.96;100.00
61014;BME280;46899;47.542;19.082;2023-02-03T17:41:15;100184.28;;;3.16;100.00
61014;BME280;46899;47.542;19.082;2023-02-03T17:44:35;100173.13;;;3.21;100.00
61014;BME280;46899;47.542;19.082;2023-02-03T17:47:56;100164.56;;;3.21;100.00
61014;BME280;46899;47.542;19.082;2023-02-03T17:51:20;100173.91;;;3.28;100.00
61014;BME280;46899;47.542;19.082;2023-02-03T17:54:40;100170.50;;;3.29;100.00
61014;BME280;46899;47.542;19.082;2023-02-03T17:57:43;100160.13;;;3.35;100.00
61014;BME280;46899;47.542;19.082;2023-02-03T18:00:45;100172.06;;;3.42;100.00
61014;BME280;46899;47.542;19.082;2023-02-03T18:03:49;100167.72;;;3.53;100.00
61014;BME280;46899;47.542;19.082;2023-02-03T18:06:52;100160.59;;;3.76;100.00
61014;BME280;46899;47.542;19.082;2023-02-03T18:09:55;100156.28;;;3.78;100.00
61014;BME280;46899;47.542;19.082;2023-02-03T18:12:58;100151.16;;;3.75;100.00
61014;BME280;46899;47.542;19.082;2023-02-03T18:16:04;100151.12;;;3.81;100.00
61014;BME280;46899;47.542;19.082;2023-02-03T18:19:07;100153.69;;;3.81;100.00
61014;BME280;46899;47.542;19.082;2023-02-03T18:22:12;100139.03;;;3.86;100.00
61014;BME280;46899;47.542;19.082;2023-02-03T18:25:15;100126.94;;;3.94;100.00